Time;durP1;ratioP1;P1;durP2;ratioP2;P2;SDS_P1;SDS_P2;PMS_P1;PMS_P2;Temp;Humidity;BMP_temperature;BMP_pressure;BME280_temperature;BME280_humidity;BME280_pressure;Samples;Min_cycle;Max_cycle;Signal;HPM_P1;HPM_P2
2021/10/19 00:00:14;;;;;;;40.45;26.17;;;;;;;;;;5030378;28;20025;-68
2021/10/19 00:02:41;;;;;;;38.03;24.30;;;;;;;;;;5027793;28;20052;-68
2021/10/19 00:05:08;;;;;;;44.28;26.58;;;;;;;;;;5028774;28;20026;-68
2021/10/19 00:07:34;;;;;;;35.20;23.20;;;;;;;;;;5019380;28;20030;-68
2021/10/19 00:10:00;;;;;;;41.15;25.85;;;;;;;;;;5029416;28;20026;-68
2021/10/19 00:12:26;;;;;;;38.20;24.70;;;;;;;;;;5026404;28;20026;-68
2021/10/19 00:14:52;;;;;;;36.08;24.45;;;;;;;;;;5043287;28;20087;-68
2021/10/19 00:17:18;;;;;;;36.83;24.52;;;;;;;;;;5030088;28;20057;-69
2021/10/19 00:19:45;;;;;;;34.35;23.17;;;;;;;;;;5030219;28;20485;-68
2021/10/19 00:22:11;;;;;;;33.90;21.90;;;;;;;;;;5030836;28;20028;-68
2021/10/19 00:24:37;;;;;;;33.45;22.17;;;;;;;;;;5029665;28;20021;-68
2021/10/19 00:27:05;;;;;;;38.58;22.65;;;;;;;;;;5029265;28;20021;-68
2021/10/19 00:29:31;;;;;;;36.53;22.63;;;;;;;;;;5029901;28;20409;-68
2021/10/19 00:31:57;;;;;;;33.00;22.08;;;;;;;;;;5031403;28;20033;-68
2021/10/19 00:34:24;;;;;;;33.42;23.02;;;;;;;;;;5029057;28;20046;-68
2021/10/19 00:36:50;;;;;;;32.78;20.90;;;;;;;;;;5030687;28;20022;-69
2021/10/19 00:39:16;;;;;;;32.00;19.70;;;;;;;;;;5028599;28;20029;-68
2021/10/19 00:41:43;;;;;;;34.42;21.42;;;;;;;;;;5030832;28;20075;-68
2021/10/19 00:44:09;;;;;;;29.80;20.60;;;;;;;;;;5030896;28;20034;-68
2021/10/19 00:46:35;;;;;;;29.33;19.60;;;;;;;;;;5029051;28;20115;-68
2021/10/19 00:49:01;;;;;;;30.67;20.48;;;;;;;;;;5030483;28;20041;-68
2021/10/19 00:51:28;;;;;;;27.90;19.08;;;;;;;;;;5030816;28;20029;-68
2021/10/19 00:53:54;;;;;;;29.50;18.95;;;;;;;;;;5029941;28;20478;-68
2021/10/19 00:56:20;;;;;;;33.08;19.65;;;;;;;;;;5030500;28;20025;-69
2021/10/19 00:58:46;;;;;;;29.95;21.13;;;;;;;;;;5027002;28;20033;-69
2021/10/19 01:01:14;;;;;;;30.00;19.33;;;;;;;;;;5029363;28;20102;-69
2021/10/19 01:03:40;;;;;;;30.17;20.88;;;;;;;;;;5030190;28;20033;-69
2021/10/19 01:06:08;;;;;;;30.80;20.85;;;;;;;;;;5027907;28;20063;-69
2021/10/19 01:08:36;;;;;;;28.75;20.50;;;;;;;;;;5026720;28;20104;-69
2021/10/19 01:11:03;;;;;;;29.50;21.00;;;;;;;;;;5030250;28;20481;-69
2021/10/19 01:13:29;;;;;;;31.88;22.52;;;;;;;;;;5027564;28;20145;-68
2021/10/19 01:16:02;;;;;;;29.05;20.13;;;;;;;;;;5028825;28;20029;-69
2021/10/19 01:18:28;;;;;;;29.30;21.80;;;;;;;;;;5026256;28;20038;-68
2021/10/19 01:20:54;;;;;;;30.77;20.58;;;;;;;;;;5028400;28;20029;-69
2021/10/19 01:23:20;;;;;;;30.65;20.63;;;;;;;;;;5029530;28;20453;-69
2021/10/19 01:25:48;;;;;;;28.83;20.13;;;;;;;;;;5027827;28;20447;-69
2021/10/19 01:28:14;;;;;;;30.38;21.00;;;;;;;;;;5024453;28;20046;-69
2021/10/19 01:30:41;;;;;;;32.80;21.85;;;;;;;;;;5028839;28;20080;-69
2021/10/19 01:33:07;;;;;;;30.85;21.77;;;;;;;;;;5025130;28;20037;-69
2021/10/19 01:35:33;;;;;;;28.08;21.58;;;;;;;;;;5030675;28;20025;-69
2021/10/19 01:37:59;;;;;;;34.97;24.80;;;;;;;;;;5027017;28;20040;-68
2021/10/19 01:40:26;;;;;;;31.60;22.35;;;;;;;;;;5021975;28;20018;-69
2021/10/19 01:42:52;;;;;;;31.40;23.80;;;;;;;;;;5029569;28;20033;-68
2021/10/19 01:45:18;;;;;;;31.15;23.17;;;;;;;;;;5029089;28;20121;-68
2021/10/19 01:47:45;;;;;;;31.55;24.33;;;;;;;;;;5028864;28;20079;-69
2021/10/19 01:50:12;;;;;;;33.80;24.55;;;;;;;;;;5024633;28;20022;-69
2021/10/19 01:52:38;;;;;;;32.38;24.95;;;;;;;;;;5025371;28;20022;-69
2021/10/19 01:55:05;;;;;;;34.83;25.08;;;;;;;;;;5021938;28;20025;-68
2021/10/19 01:57:32;;;;;;;32.17;24.13;;;;;;;;;;5029469;28;20056;-69
2021/10/19 01:59:58;;;;;;;31.65;23.25;;;;;;;;;;5025741;28;20511;-69
2021/10/19 02:02:24;;;;;;;33.50;23.48;;;;;;;;;;5028488;28;20022;-69
2021/10/19 02:04:50;;;;;;;34.97;24.90;;;;;;;;;;5029448;28;20029;-69
2021/10/19 02:07:16;;;;;;;32.17;23.35;;;;;;;;;;5028790;28;20026;-69
2021/10/19 02:09:42;;;;;;;30.88;24.02;;;;;;;;;;5028580;28;20075;-69
2021/10/19 02:12:08;;;;;;;37.97;26.38;;;;;;;;;;5022398;28;20033;-69
2021/10/19 02:14:34;;;;;;;36.85;26.10;;;;;;;;;;5029477;28;20096;-69
2021/10/19 02:17:00;;;;;;;32.95;24.75;;;;;;;;;;5029005;28;20032;-69
2021/10/19 02:19:28;;;;;;;37.70;26.10;;;;;;;;;;5028542;28;20030;-69
2021/10/19 02:21:54;;;;;;;35.03;25.42;;;;;;;;;;5029055;28;20513;-70
2021/10/19 02:24:20;;;;;;;31.00;24.95;;;;;;;;;;5029067;28;20057;-69
2021/10/19 02:26:47;;;;;;;39.00;26.80;;;;;;;;;;5032343;28;20040;-69
2021/10/19 02:29:14;;;;;;;34.13;25.70;;;;;;;;;;5030726;28;20033;-69
2021/10/19 02:31:40;;;;;;;35.92;26.35;;;;;;;;;;5029360;28;20108;-69
2021/10/19 02:34:06;;;;;;;36.35;27.10;;;;;;;;;;5029327;28;20046;-69
2021/10/19 02:36:33;;;;;;;35.33;26.63;;;;;;;;;;5033201;28;20032;-69
2021/10/19 02:39:03;;;;;;;34.55;25.67;;;;;;;;;;5030025;28;20021;-70
2021/10/19 02:41:29;;;;;;;36.70;26.92;;;;;;;;;;5033113;28;20048;-69
2021/10/19 02:43:55;;;;;;;39.85;27.10;;;;;;;;;;5046628;28;20397;-70
2021/10/19 02:46:21;;;;;;;44.67;27.80;;;;;;;;;;5047563;28;20405;-69
2021/10/19 02:48:48;;;;;;;37.05;27.17;;;;;;;;;;5031271;28;20401;-69
2021/10/19 02:51:14;;;;;;;39.63;27.60;;;;;;;;;;5028028;28;20021;-70
2021/10/19 02:53:40;;;;;;;41.65;28.75;;;;;;;;;;5030690;28;20021;-69
2021/10/19 02:56:06;;;;;;;41.58;27.80;;;;;;;;;;5032792;28;20021;-69
2021/10/19 02:58:32;;;;;;;41.45;29.17;;;;;;;;;;5031572;28;20037;-69
2021/10/19 03:00:58;;;;;;;44.47;29.27;;;;;;;;;;5029380;28;20056;-69
2021/10/19 03:03:24;;;;;;;42.05;30.00;;;;;;;;;;5032114;28;20083;-69
2021/10/19 03:05:50;;;;;;;43.10;29.70;;;;;;;;;;5030662;28;20032;-69
2021/10/19 03:08:16;;;;;;;43.42;30.35;;;;;;;;;;5030562;28;20021;-69
2021/10/19 03:10:42;;;;;;;42.90;29.63;;;;;;;;;;5038450;28;20033;-69
2021/10/19 03:13:08;;;;;;;48.10;33.58;;;;;;;;;;5032651;28;20030;-69
2021/10/19 03:15:34;;;;;;;45.33;30.20;;;;;;;;;;5027292;28;20056;-69
2021/10/19 03:18:00;;;;;;;46.88;30.60;;;;;;;;;;5031742;28;20030;-69
2021/10/19 03:20:26;;;;;;;44.00;30.70;;;;;;;;;;5031657;28;20040;-70
2021/10/19 03:22:52;;;;;;;44.88;29.17;;;;;;;;;;5030609;28;20063;-70
2021/10/19 03:25:18;;;;;;;48.17;30.55;;;;;;;;;;5032229;28;20646;-69
2021/10/19 03:27:44;;;;;;;48.35;31.13;;;;;;;;;;5031525;28;20033;-69
2021/10/19 03:30:10;;;;;;;43.35;28.90;;;;;;;;;;5030442;28;20018;-69
2021/10/19 03:32:37;;;;;;;43.60;28.55;;;;;;;;;;5029116;28;20025;-70
2021/10/19 03:35:03;;;;;;;44.72;28.17;;;;;;;;;;5028772;28;20038;-69
2021/10/19 03:37:29;;;;;;;45.55;27.70;;;;;;;;;;5026162;28;20017;-69
2021/10/19 03:39:55;;;;;;;42.58;28.38;;;;;;;;;;5030466;28;20033;-69
2021/10/19 03:42:21;;;;;;;41.35;29.20;;;;;;;;;;5031324;28;20076;-69
2021/10/19 03:44:47;;;;;;;40.47;26.05;;;;;;;;;;5031799;28;20017;-69
2021/10/19 03:47:13;;;;;;;43.28;27.08;;;;;;;;;;5031241;28;20021;-70
2021/10/19 03:49:39;;;;;;;40.80;25.02;;;;;;;;;;5028933;28;20120;-69
2021/10/19 03:52:05;;;;;;;36.50;24.83;;;;;;;;;;5029131;28;20500;-69
2021/10/19 03:54:31;;;;;;;34.58;23.10;;;;;;;;;;5029758;28;20025;-69
2021/10/19 03:56:57;;;;;;;39.38;23.55;;;;;;;;;;5030967;28;20029;-69
2021/10/19 03:59:23;;;;;;;31.10;20.92;;;;;;;;;;5030780;28;20021;-69
2021/10/19 04:01:49;;;;;;;34.00;23.58;;;;;;;;;;5030221;28;20053;-69
2021/10/19 04:04:15;;;;;;;32.03;21.67;;;;;;;;;;5026074;28;20021;-69
2021/10/19 04:06:41;;;;;;;32.42;20.58;;;;;;;;;;5031993;28;20029;-69
2021/10/19 04:09:08;;;;;;;25.90;18.55;;;;;;;;;;5024615;28;20037;-69
2021/10/19 04:11:34;;;;;;;26.85;18.95;;;;;;;;;;5031119;28;20025;-69
2021/10/19 04:14:00;;;;;;;29.85;19.88;;;;;;;;;;5024907;28;20495;-69
2021/10/19 04:16:26;;;;;;;26.42;18.40;;;;;;;;;;5031561;28;20018;-69
2021/10/19 04:18:52;;;;;;;29.38;19.67;;;;;;;;;;5022435;28;20029;-69
2021/10/19 04:21:18;;;;;;;26.75;18.58;;;;;;;;;;5029500;28;20083;-69
2021/10/19 04:23:44;;;;;;;26.60;18.85;;;;;;;;;;5030498;28;20043;-69
2021/10/19 04:26:10;;;;;;;25.58;18.20;;;;;;;;;;5029573;28;20029;-69
2021/10/19 04:28:36;;;;;;;25.95;18.00;;;;;;;;;;5029124;28;20025;-69
2021/10/19 04:31:02;;;;;;;26.73;18.10;;;;;;;;;;5026439;28;20060;-70
2021/10/19 04:33:28;;;;;;;25.77;17.00;;;;;;;;;;5028150;28;20041;-69
2021/10/19 04:35:54;;;;;;;25.27;18.02;;;;;;;;;;5030981;28;20104;-70
2021/10/19 04:38:20;;;;;;;29.98;17.85;;;;;;;;;;5029522;28;20049;-69
2021/10/19 04:40:46;;;;;;;25.55;16.77;;;;;;;;;;5027971;28;20037;-69
2021/10/19 04:43:12;;;;;;;26.63;18.52;;;;;;;;;;5029424;28;20100;-69
2021/10/19 04:45:39;;;;;;;22.10;16.77;;;;;;;;;;5028276;28;20088;-69
2021/10/19 04:48:05;;;;;;;27.55;18.00;;;;;;;;;;5029551;28;20025;-69
2021/10/19 04:50:34;;;;;;;25.27;16.90;;;;;;;;;;5027644;28;20053;-69
2021/10/19 04:53:00;;;;;;;25.73;17.73;;;;;;;;;;5029085;28;20075;-69
2021/10/19 04:55:26;;;;;;;25.13;17.05;;;;;;;;;;5029266;28;20029;-69
2021/10/19 04:57:52;;;;;;;24.02;17.70;;;;;;;;;;5029191;28;20037;-69
2021/10/19 05:00:18;;;;;;;24.23;16.70;;;;;;;;;;5028129;28;20537;-69
2021/10/19 05:02:45;;;;;;;23.65;16.40;;;;;;;;;;5028293;28;20421;-69
2021/10/19 05:05:11;;;;;;;21.75;15.88;;;;;;;;;;5030328;28;20022;-69
2021/10/19 05:07:37;;;;;;;23.83;16.58;;;;;;;;;;5026460;28;20610;-69
2021/10/19 05:10:03;;;;;;;20.60;14.90;;;;;;;;;;5021798;28;20021;-69
2021/10/19 05:12:29;;;;;;;25.85;16.85;;;;;;;;;;5025169;28;20390;-69
2021/10/19 05:14:57;;;;;;;25.42;16.92;;;;;;;;;;5024000;28;20379;-69
2021/10/19 05:17:23;;;;;;;24.80;16.90;;;;;;;;;;5025560;28;20164;-69
2021/10/19 05:19:49;;;;;;;30.48;17.45;;;;;;;;;;5024633;28;20108;-69
2021/10/19 05:22:15;;;;;;;24.60;17.13;;;;;;;;;;5028812;28;20509;-69
2021/10/19 05:24:41;;;;;;;24.00;15.88;;;;;;;;;;5027096;28;20033;-69
2021/10/19 05:27:07;;;;;;;27.15;15.55;;;;;;;;;;5023010;28;20025;-69
2021/10/19 05:29:33;;;;;;;25.35;17.02;;;;;;;;;;5013864;28;20049;-70
2021/10/19 05:31:59;;;;;;;25.73;17.45;;;;;;;;;;5024082;28;20075;-70
2021/10/19 05:34:25;;;;;;;25.65;17.35;;;;;;;;;;5029645;28;20120;-70
2021/10/19 05:36:51;;;;;;;26.65;16.95;;;;;;;;;;5027788;28;20029;-69
2021/10/19 05:39:18;;;;;;;28.15;17.83;;;;;;;;;;5023669;28;20056;-70
2021/10/19 05:41:44;;;;;;;25.17;17.83;;;;;;;;;;5026954;28;20033;-70
2021/10/19 05:44:10;;;;;;;24.83;17.25;;;;;;;;;;5023719;28;20033;-69
2021/10/19 05:46:36;;;;;;;26.80;18.88;;;;;;;;;;5024227;28;20065;-70
2021/10/19 05:49:03;;;;;;;26.08;18.73;;;;;;;;;;5029978;28;20448;-69
2021/10/19 05:51:29;;;;;;;25.85;18.35;;;;;;;;;;5023659;28;20021;-69
2021/10/19 05:53:55;;;;;;;26.27;18.25;;;;;;;;;;5028672;28;20075;-70
2021/10/19 05:56:21;;;;;;;27.30;19.20;;;;;;;;;;5020698;28;20040;-69
2021/10/19 05:58:47;;;;;;;26.45;18.95;;;;;;;;;;5029691;28;20135;-69
2021/10/19 06:01:13;;;;;;;25.08;18.52;;;;;;;;;;5029340;28;20120;-69
2021/10/19 06:03:39;;;;;;;26.10;18.85;;;;;;;;;;5030164;28;20068;-69
2021/10/19 06:06:10;;;;;;;31.17;18.85;;;;;;;;;;5031576;28;20040;-69
2021/10/19 06:08:36;;;;;;;28.80;19.58;;;;;;;;;;5034046;28;20079;-69
2021/10/19 06:11:02;;;;;;;33.63;20.08;;;;;;;;;;5113955;22;20657;-72
2021/10/19 06:13:28;;;;;;;27.80;19.45;;;;;;;;;;5014398;28;20370;-72
2021/10/19 06:15:55;;;;;;;27.27;19.83;;;;;;;;;;5007656;28;20606;-72
2021/10/19 06:18:21;;;;;;;28.88;19.02;;;;;;;;;;5004622;28;20303;-72
2021/10/19 06:20:49;;;;;;;31.02;18.70;;;;;;;;;;5014376;28;20018;-72
2021/10/19 06:23:15;;;;;;;28.90;20.17;;;;;;;;;;5011626;28;20496;-72
2021/10/19 06:25:41;;;;;;;35.10;21.20;;;;;;;;;;5017481;28;20030;-72
2021/10/19 06:28:07;;;;;;;28.42;19.13;;;;;;;;;;5006316;28;20033;-73
2021/10/19 06:33:09;;;;;;;32.33;19.17;;;;;;;;;;4402622;22;20421;-70
2021/10/19 06:35:35;;;;;;;27.02;18.35;;;;;;;;;;5028400;28;20100;-70
2021/10/19 06:38:02;;;;;;;29.80;18.40;;;;;;;;;;5025218;28;20283;-70
2021/10/19 06:40:28;;;;;;;28.90;19.02;;;;;;;;;;5030982;28;20018;-70
2021/10/19 06:45:24;;;;;;;29.05;18.65;;;;;;;;;;4998006;28;20438;-70
2021/10/19 06:47:50;;;;;;;30.98;19.33;;;;;;;;;;5081952;22;20081;-71
2021/10/19 06:50:16;;;;;;;31.27;18.52;;;;;;;;;;4999495;28;20696;-71
2021/10/19 06:52:43;;;;;;;32.92;19.50;;;;;;;;;;4990478;28;20053;-71
2021/10/19 06:55:09;;;;;;;30.55;18.48;;;;;;;;;;4990999;28;20030;-71
2021/10/19 06:57:42;;;;;;;30.17;19.27;;;;;;;;;;5000269;28;20073;-70
2021/10/19 07:00:12;;;;;;;33.03;20.30;;;;;;;;;;4988864;28;20404;-71
2021/10/19 07:02:39;;;;;;;45.17;19.30;;;;;;;;;;5003980;28;20084;-70
2021/10/19 07:05:05;;;;;;;33.47;19.98;;;;;;;;;;4974107;28;20019;-71
2021/10/19 07:07:31;;;;;;;35.33;19.77;;;;;;;;;;5021661;28;20026;-71
2021/10/19 07:09:58;;;;;;;34.55;19.77;;;;;;;;;;4999276;28;20118;-71
2021/10/19 07:12:25;;;;;;;34.22;20.65;;;;;;;;;;5005634;28;20038;-71
2021/10/19 07:14:51;;;;;;;30.88;20.52;;;;;;;;;;5007871;28;20126;-71
2021/10/19 07:17:17;;;;;;;31.85;20.17;;;;;;;;;;4987162;28;20022;-71
2021/10/19 07:19:43;;;;;;;38.05;21.60;;;;;;;;;;5003568;28;20042;-71
2021/10/19 07:22:09;;;;;;;47.22;21.77;;;;;;;;;;4988190;28;20029;-71
2021/10/19 07:24:35;;;;;;;31.35;19.90;;;;;;;;;;4991990;28;20030;-71
2021/10/19 07:27:01;;;;;;;39.92;21.95;;;;;;;;;;4991094;28;20049;-71
2021/10/19 07:29:27;;;;;;;41.08;21.40;;;;;;;;;;4993784;28;20113;-71
2021/10/19 07:31:53;;;;;;;37.03;23.10;;;;;;;;;;4990735;28;20038;-71
2021/10/19 07:34:19;;;;;;;37.47;23.83;;;;;;;;;;5016719;28;20022;-70
2021/10/19 07:36:46;;;;;;;35.80;21.38;;;;;;;;;;4983993;28;20038;-71
2021/10/19 07:39:12;;;;;;;37.63;22.73;;;;;;;;;;4978349;28;20027;-71
2021/10/19 07:41:38;;;;;;;38.95;22.25;;;;;;;;;;4984172;28;20064;-71
2021/10/19 07:44:07;;;;;;;36.45;22.42;;;;;;;;;;4977828;28;20117;-71
2021/10/19 07:46:34;;;;;;;37.50;20.92;;;;;;;;;;4978323;28;20022;-71
2021/10/19 07:49:00;;;;;;;34.97;22.88;;;;;;;;;;4984177;28;20046;-72
2021/10/19 07:51:26;;;;;;;36.40;20.95;;;;;;;;;;4981160;28;20468;-71
2021/10/19 07:53:52;;;;;;;34.95;20.77;;;;;;;;;;4984915;28;20031;-71
2021/10/19 07:56:20;;;;;;;39.05;23.25;;;;;;;;;;4999044;28;20492;-71
2021/10/19 07:58:47;;;;;;;34.47;21.42;;;;;;;;;;4980937;28;20059;-71
2021/10/19 08:01:13;;;;;;;36.38;21.85;;;;;;;;;;4985456;28;20037;-71
2021/10/19 08:03:39;;;;;;;41.55;21.88;;;;;;;;;;4984565;28;20081;-71
2021/10/19 08:06:05;;;;;;;36.42;21.38;;;;;;;;;;4982858;28;20049;-71
2021/10/19 08:08:32;;;;;;;38.47;21.38;;;;;;;;;;4982098;28;20141;-71
2021/10/19 08:10:58;;;;;;;39.40;22.55;;;;;;;;;;4999101;28;20048;-71
2021/10/19 08:13:24;;;;;;;40.15;21.70;;;;;;;;;;5001105;28;20026;-71
2021/10/19 08:15:50;;;;;;;33.22;20.52;;;;;;;;;;4983183;28;20054;-71
2021/10/19 08:18:16;;;;;;;38.75;20.48;;;;;;;;;;4996602;28;20121;-71
2021/10/19 08:20:42;;;;;;;35.92;21.95;;;;;;;;;;4984754;28;20496;-71
2021/10/19 08:23:09;;;;;;;34.95;20.50;;;;;;;;;;4983833;28;20097;-71
2021/10/19 08:25:35;;;;;;;40.88;21.48;;;;;;;;;;4984892;28;20488;-71
2021/10/19 08:28:01;;;;;;;41.22;20.55;;;;;;;;;;4982507;28;20714;-71
2021/10/19 08:30:27;;;;;;;37.90;21.10;;;;;;;;;;4982335;28;20029;-72
2021/10/19 08:32:54;;;;;;;36.13;20.48;;;;;;;;;;4982995;28;20034;-71
2021/10/19 08:35:24;;;;;;;34.20;19.40;;;;;;;;;;4999529;28;20104;-71
2021/10/19 08:37:50;;;;;;;37.88;20.88;;;;;;;;;;4980109;28;20056;-71
2021/10/19 08:40:17;;;;;;;35.83;22.40;;;;;;;;;;4983188;28;20030;-71
2021/10/19 08:42:48;;;;;;;36.35;21.10;;;;;;;;;;4982170;28;20189;-71
2021/10/19 08:45:15;;;;;;;33.20;20.73;;;;;;;;;;4982043;28;20497;-71
2021/10/19 08:47:42;;;;;;;37.55;21.02;;;;;;;;;;4983432;28;21664;-71
2021/10/19 08:50:08;;;;;;;38.33;19.48;;;;;;;;;;4982434;28;20045;-71
2021/10/19 08:52:34;;;;;;;34.55;19.25;;;;;;;;;;4982119;28;20481;-71
2021/10/19 08:55:00;;;;;;;38.00;19.63;;;;;;;;;;4998280;28;20026;-71
2021/10/19 08:57:26;;;;;;;38.20;21.80;;;;;;;;;;4998349;28;20019;-71
2021/10/19 08:59:55;;;;;;;40.85;20.40;;;;;;;;;;4982559;28;20042;-71
2021/10/19 09:02:33;;;;;;;37.25;21.00;;;;;;;;;;4983990;28;20037;-71
2021/10/19 09:05:00;;;;;;;33.47;20.15;;;;;;;;;;4983246;28;20041;-70
2021/10/19 09:07:27;;;;;;;36.42;20.17;;;;;;;;;;4982061;28;20104;-71
2021/10/19 09:09:53;;;;;;;37.92;20.80;;;;;;;;;;4980537;28;20037;-71
2021/10/19 09:12:23;;;;;;;37.17;22.92;;;;;;;;;;4982513;28;20054;-71
2021/10/19 09:14:49;;;;;;;44.05;23.33;;;;;;;;;;4988115;28;20122;-71
2021/10/19 09:17:15;;;;;;;40.25;22.48;;;;;;;;;;4982045;28;21506;-71
2021/10/19 09:19:44;;;;;;;44.60;23.05;;;;;;;;;;4980876;28;20033;-72
2021/10/19 09:22:11;;;;;;;44.75;23.02;;;;;;;;;;4981959;28;20037;-71
2021/10/19 09:24:41;;;;;;;39.80;21.40;;;;;;;;;;4983290;28;20096;-71
2021/10/19 09:27:16;;;;;;;39.92;21.50;;;;;;;;;;4983650;28;20022;-71
2021/10/19 09:29:42;;;;;;;40.75;22.38;;;;;;;;;;4993766;28;20113;-71
2021/10/19 09:32:09;;;;;;;41.42;22.30;;;;;;;;;;4984673;28;20030;-71
2021/10/19 09:34:37;;;;;;;42.17;21.40;;;;;;;;;;4981553;28;20145;-71
2021/10/19 09:37:03;;;;;;;38.13;20.92;;;;;;;;;;4980940;28;20030;-71
2021/10/19 09:39:29;;;;;;;40.83;21.52;;;;;;;;;;4980870;28;20022;-71
2021/10/19 09:41:55;;;;;;;41.55;22.67;;;;;;;;;;4982199;28;20089;-71
2021/10/19 09:44:22;;;;;;;40.50;23.48;;;;;;;;;;4982343;28;20037;-71
2021/10/19 09:46:48;;;;;;;39.75;24.67;;;;;;;;;;4981313;28;20042;-71
2021/10/19 09:49:15;;;;;;;48.22;24.33;;;;;;;;;;4995071;28;20152;-71
2021/10/19 09:51:41;;;;;;;48.30;23.92;;;;;;;;;;4997887;28;20026;-71
2021/10/19 09:54:08;;;;;;;47.30;24.13;;;;;;;;;;4982874;28;20121;-73
2021/10/19 09:56:39;;;;;;;38.85;20.48;;;;;;;;;;4984782;28;20022;-71
2021/10/19 09:59:05;;;;;;;39.45;20.65;;;;;;;;;;4980925;28;20038;-71
2021/10/19 10:01:35;;;;;;;36.38;20.13;;;;;;;;;;4998040;28;20026;-71
2021/10/19 10:04:02;;;;;;;36.13;20.58;;;;;;;;;;4984017;28;20747;-70
2021/10/19 10:06:29;;;;;;;35.65;19.58;;;;;;;;;;4983374;28;20026;-71
2021/10/19 10:08:56;;;;;;;34.95;17.05;;;;;;;;;;4993486;28;20054;-71
2021/10/19 10:11:22;;;;;;;33.88;16.88;;;;;;;;;;4983784;28;20045;-71
2021/10/19 10:13:55;;;;;;;27.33;15.82;;;;;;;;;;4982121;28;20245;-71
2021/10/19 10:16:21;;;;;;;29.58;17.35;;;;;;;;;;4996544;28;20509;-70
2021/10/19 10:18:47;;;;;;;25.05;14.82;;;;;;;;;;4996400;28;20117;-71
2021/10/19 10:21:14;;;;;;;31.33;16.70;;;;;;;;;;4987151;28;20037;-71
2021/10/19 10:23:42;;;;;;;30.00;15.60;;;;;;;;;;4988424;28;20452;-71
2021/10/19 10:26:11;;;;;;;25.92;14.75;;;;;;;;;;4986697;28;20033;-70
2021/10/19 10:28:37;;;;;;;36.85;19.42;;;;;;;;;;4987200;28;20034;-70
2021/10/19 10:31:05;;;;;;;37.33;20.50;;;;;;;;;;4973318;28;20034;-69
2021/10/19 10:33:42;;;;;;;35.40;18.63;;;;;;;;;;5001320;28;20039;-71
2021/10/19 10:36:14;;;;;;;38.90;20.13;;;;;;;;;;4982902;28;20027;-70
2021/10/19 10:38:40;;;;;;;;;;;;;;;;;;5010071;28;20514;-70
2021/10/19 10:41:11;;;;;;;47.42;21.90;;;;;;;;;;4989421;28;20036;-70
2021/10/19 10:43:37;;;;;;;42.17;22.00;;;;;;;;;;5012430;28;20397;-71
2021/10/19 10:46:05;;;;;;;47.83;23.95;;;;;;;;;;5000930;28;20057;-71
2021/10/19 10:48:31;;;;;;;45.63;24.75;;;;;;;;;;4989735;28;20066;-70
2021/10/19 10:50:58;;;;;;;44.17;23.98;;;;;;;;;;5005133;28;20382;-71
2021/10/19 10:53:31;;;;;;;45.08;24.70;;;;;;;;;;4989495;28;20042;-71
2021/10/19 10:55:57;;;;;;;48.10;23.55;;;;;;;;;;5005142;28;20019;-71
2021/10/19 10:58:27;;;;;;;54.95;24.33;;;;;;;;;;5003762;28;20138;-71
2021/10/19 11:00:53;;;;;;;47.40;21.58;;;;;;;;;;5007624;28;20074;-71
2021/10/19 11:03:20;;;;;;;50.88;24.10;;;;;;;;;;4992910;28;20121;-70
2021/10/19 11:05:51;;;;;;;49.85;24.75;;;;;;;;;;4984571;28;20428;-70
2021/10/19 11:08:33;;;;;;;51.90;24.48;;;;;;;;;;4975678;28;20491;-71
2021/10/19 11:11:08;;;;;;;43.80;25.58;;;;;;;;;;4984427;28;20023;-70
2021/10/19 11:13:54;;;;;;;48.20;24.30;;;;;;;;;;5008196;28;20440;-72
2021/10/19 11:16:40;;;;;;;56.70;25.05;;;;;;;;;;5007107;28;20029;-71
2021/10/19 11:19:13;;;;;;;48.63;24.10;;;;;;;;;;4985191;28;20054;-70
2021/10/19 11:21:40;;;;;;;58.47;28.73;;;;;;;;;;4989055;28;20034;-70
2021/10/19 11:24:06;;;;;;;50.20;26.95;;;;;;;;;;4984272;28;20030;-71
2021/10/19 11:26:34;;;;;;;56.05;27.38;;;;;;;;;;4990466;28;20039;-71
2021/10/19 11:29:00;;;;;;;51.58;28.52;;;;;;;;;;5001986;28;20038;-71
2021/10/19 11:31:28;;;;;;;53.25;26.27;;;;;;;;;;4981270;28;20026;-72
2021/10/19 11:33:55;;;;;;;51.20;26.45;;;;;;;;;;4991043;28;20449;-70
2021/10/19 11:36:21;;;;;;;50.03;26.63;;;;;;;;;;5010575;28;20053;-72
2021/10/19 11:38:49;;;;;;;54.92;27.73;;;;;;;;;;4986126;28;20065;-71
2021/10/19 11:41:19;;;;;;;57.95;30.88;;;;;;;;;;5007282;28;20031;-72
2021/10/19 11:43:46;;;;;;;50.42;25.17;;;;;;;;;;4991665;28;20484;-72
2021/10/19 11:46:14;;;;;;;50.20;28.40;;;;;;;;;;4991482;28;20440;-71
2021/10/19 11:48:41;;;;;;;50.03;28.95;;;;;;;;;;4988869;28;20034;-71
2021/10/19 11:51:11;;;;;;;53.28;27.33;;;;;;;;;;5006772;28;20400;-71
2021/10/19 11:53:38;;;;;;;56.55;28.67;;;;;;;;;;5005751;28;20029;-71
2021/10/19 11:56:05;;;;;;;49.97;27.60;;;;;;;;;;5161286;22;20508;-74
2021/10/19 11:58:31;;;;;;;47.58;25.67;;;;;;;;;;5000806;28;20484;-71
2021/10/19 12:00:57;;;;;;;48.88;23.15;;;;;;;;;;5002854;28;20412;-72
2021/10/19 12:03:30;;;;;;;50.70;27.23;;;;;;;;;;5010478;28;20168;-72
2021/10/19 12:05:56;;;;;;;48.28;27.95;;;;;;;;;;5005524;28;20036;-71
2021/10/19 12:08:28;;;;;;;42.08;23.77;;;;;;;;;;5007593;28;20277;-72
2021/10/19 12:10:54;;;;;;;44.22;23.10;;;;;;;;;;5007220;28;20030;-69
2021/10/19 12:13:20;;;;;;;46.35;26.33;;;;;;;;;;5005142;28;20026;-72
2021/10/19 12:15:54;;;;;;;42.85;25.85;;;;;;;;;;5002740;28;20041;-71
2021/10/19 12:18:20;;;;;;;38.17;24.33;;;;;;;;;;5008147;28;20405;-72
2021/10/19 12:20:48;;;;;;;39.08;25.08;;;;;;;;;;5002932;28;20399;-73
2021/10/19 12:23:15;;;;;;;41.95;24.90;;;;;;;;;;5007759;28;20101;-73
2021/10/19 12:25:43;;;;;;;40.60;23.37;;;;;;;;;;5009349;28;20152;-73
2021/10/19 12:28:15;;;;;;;44.50;27.63;;;;;;;;;;5000498;28;20287;-72
2021/10/19 12:30:42;;;;;;;48.00;25.63;;;;;;;;;;5005091;28;20033;-72
2021/10/19 12:33:12;;;;;;;38.25;24.85;;;;;;;;;;5013375;28;20097;-72
2021/10/19 12:35:48;;;;;;;46.35;24.55;;;;;;;;;;5002941;28;20029;-72
2021/10/19 12:38:14;;;;;;;44.53;27.35;;;;;;;;;;4998483;28;20045;-72
2021/10/19 12:40:44;;;;;;;37.92;25.25;;;;;;;;;;5007005;28;20119;-73
2021/10/19 12:43:10;;;;;;;38.15;24.95;;;;;;;;;;5017660;28;20351;-72
2021/10/19 12:45:36;;;;;;;39.85;24.23;;;;;;;;;;5001170;28;21300;-71
2021/10/19 12:48:06;;;;;;;40.90;24.25;;;;;;;;;;5007034;28;20058;-72
2021/10/19 12:50:33;;;;;;;38.88;24.73;;;;;;;;;;5007246;28;20026;-73
2021/10/19 12:52:59;;;;;;;38.85;24.08;;;;;;;;;;5010600;28;20034;-74
2021/10/19 12:55:25;;;;;;;46.15;24.83;;;;;;;;;;5007715;28;20049;-72
2021/10/19 12:57:53;;;;;;;36.67;26.05;;;;;;;;;;5003764;28;20032;-73
2021/10/19 13:00:19;;;;;;;33.20;21.63;;;;;;;;;;5009493;28;20449;-72
2021/10/19 13:02:45;;;;;;;38.25;24.42;;;;;;;;;;5011586;28;20029;-71
2021/10/19 13:05:12;;;;;;;34.50;20.98;;;;;;;;;;5009617;28;20029;-73
2021/10/19 13:07:38;;;;;;;30.17;20.55;;;;;;;;;;5001615;28;20022;-72
2021/10/19 13:10:05;;;;;;;33.05;22.92;;;;;;;;;;4995870;28;20026;-73
2021/10/19 13:12:31;;;;;;;37.63;22.70;;;;;;;;;;5022975;28;20048;-72
2021/10/19 13:14:57;;;;;;;36.50;24.08;;;;;;;;;;5007130;28;20034;-72
2021/10/19 13:17:23;;;;;;;41.55;23.42;;;;;;;;;;5006463;28;20022;-72
2021/10/19 13:19:49;;;;;;;40.35;23.67;;;;;;;;;;5003235;28;20033;-72
2021/10/19 13:22:16;;;;;;;36.05;24.17;;;;;;;;;;5004905;28;20109;-70
2021/10/19 13:24:42;;;;;;;36.63;23.10;;;;;;;;;;5023502;28;20080;-72
2021/10/19 13:27:08;;;;;;;40.83;24.77;;;;;;;;;;5023837;28;20057;-71
2021/10/19 13:29:37;;;;;;;36.85;24.80;;;;;;;;;;5005180;28;20077;-71
2021/10/19 13:32:03;;;;;;;39.33;23.60;;;;;;;;;;5006845;28;20034;-71
2021/10/19 13:34:29;;;;;;;35.85;24.30;;;;;;;;;;5007925;28;20018;-71
2021/10/19 13:36:55;;;;;;;37.55;24.58;;;;;;;;;;5009046;28;20029;-71
2021/10/19 13:39:21;;;;;;;41.63;24.85;;;;;;;;;;5005538;28;20088;-71
2021/10/19 13:41:50;;;;;;;37.00;25.27;;;;;;;;;;5005675;28;20122;-71
2021/10/19 13:44:17;;;;;;;40.30;25.15;;;;;;;;;;5009891;28;20029;-71
2021/10/19 13:46:43;;;;;;;37.30;25.63;;;;;;;;;;5008033;28;20389;-70
2021/10/19 13:49:10;;;;;;;36.97;23.60;;;;;;;;;;5004832;28;20033;-71
2021/10/19 13:51:36;;;;;;;38.90;24.65;;;;;;;;;;5008028;28;20022;-71
2021/10/19 13:54:03;;;;;;;37.50;24.65;;;;;;;;;;5007642;28;20031;-71
2021/10/19 13:56:29;;;;;;;37.88;24.02;;;;;;;;;;5009979;28;20038;-70
2021/10/19 13:58:55;;;;;;;41.45;23.95;;;;;;;;;;5022622;28;20041;-71
2021/10/19 14:01:22;;;;;;;35.22;23.48;;;;;;;;;;5008764;28;20073;-71
2021/10/19 14:03:48;;;;;;;42.60;24.27;;;;;;;;;;5008102;28;20022;-71
2021/10/19 14:06:14;;;;;;;35.78;23.30;;;;;;;;;;5006793;28;20041;-71
2021/10/19 14:08:42;;;;;;;40.03;24.15;;;;;;;;;;5022142;28;20029;-72
2021/10/19 14:11:08;;;;;;;37.38;23.42;;;;;;;;;;5005382;28;20516;-72
2021/10/19 14:13:37;;;;;;;36.33;22.55;;;;;;;;;;5008889;28;20518;-71
2021/10/19 14:16:03;;;;;;;35.67;22.88;;;;;;;;;;5006273;28;20037;-71
2021/10/19 14:20:57;;;;;;;34.53;21.45;;;;;;;;;;5127417;22;20046;-96
2021/10/19 14:23:23;;;;;;;35.17;22.73;;;;;;;;;;5029561;28;20029;-96